Aérodrome :
LOGIN :

S'inscrire | Disclaimer

   EN    FR    IT 

 










Légende :    VFR   VFR Marginal   IFR   IFR Intensif   IFR Très Intensif
Visi : 
Plafond : 
>= 8 km
>= 3000ft
5 à 8 km
1000 à 3000 ft
1500m à 5 km
500 à 1000 ft
800 à 1500m
200 à 500 ft
< 800m
< 200 ft
Symboles :   Orages  Brouillard  Fortes neiges  Fortes précipitations  Vent > 20 kt
SIGMETs :   Divers  Orages  Givrage  Turbulence  Onde Orograph.  Cendres Volcan.






- Altitude de l'aérodrome : 468 ft
- Code IATA : GRO


LEGE - Girona Costa Brava

DERNIER METAR :
  • 290630Z VRB01KT 9000 NSC 06/06 Q1015

METARs EXPIRÉS :
  • 290600Z 00000KT 8000 NSC 05/05 Q1015
  • 290530Z 02003KT 5000 BR NSC 04/04 Q1015
  • 290500Z 00000KT 3000 BR NSC 04/04 Q1015
  • 290430Z 03002KT 5000 BR NSC 03/03 Q1015
  • 290400Z 03002KT 4000 BR NSC 04/04 Q1015

TAF TAF LEGE
Valide du 29 à 06h jusqu'au 30 à 06h UTC


290500Z 2906/3006 VRB04KT 9999 FEW020 TX19/2913Z TN06/2906Z
BECMG 2909/2911 13010KT
BECMG 2913/2915 18010KT
PROB30
TEMPO 2914/2921 SHRA FEW040TCU
BECMG 2918/2920 VRB03KT



MET'MAP, la Météo Aéronautique d'un coup d'oeil ! - Copyright ORBIFLY Décembre 2007 - Disclaimer

ORBIFLY MET'MAP TEAM :

Programmation & Développement : Alexandra Zaïnal
Sur une idée originale de : Baudouin d'Aumeries
Assistance à la programmation : Marc-Olivier Méhu
Soutien technique & logistique : Manuel Goepfert

Contact : metmap@orbifly.com




SOURCES & CREDITS :

   NOAA